<?xml version="1.0" encoding="utf-8"?>
<gpx xmlns:xsi="http://www.w3.org/2001/XMLSchema-instance" xmlns:xsd="http://www.w3.org/2001/XMLSchema" version="1.1" creator="Shapelink.com" xmlns="http://www.topografix.com/GPX/1/1" xmlns:gpxtpx="http://www.garmin.com/xmlschemas/TrackPointExtension/v1">
  <metadata>
    <name>Cycling 15.69 km, 2020-07-18</name>
    <desc></desc>
    <author><name>Marian Moron</name></author> 
    <time>2020-07-18T13:34:57Z</time>
  </metadata>
  <trk>
    <name>Cycling 15.69 km, 2020-07-18</name>
    <trkseg>
      <trkpt lat="51.228744440421" lon="4.448778166009">
        <ele>0</ele>
        <time>2020-07-18T13:34:57Z</time>
      </trkpt>
      <trkpt lat="51.228780650229" lon="4.448753690861">
        <ele>0</ele>
        <time>2020-07-18T13:34:59Z</time>
      </trkpt>
      <trkpt lat="51.228806885576" lon="4.448795767999">
        <ele>0</ele>
        <time>2020-07-18T13:35:01Z</time>
      </trkpt>
      <trkpt lat="51.228830941629" lon="4.448825356106">
        <ele>0</ele>
        <time>2020-07-18T13:35:03Z</time>
      </trkpt>
      <trkpt lat="51.228779141487" lon="4.448863493751">
        <ele>0</ele>
        <time>2020-07-18T13:35:05Z</time>
      </trkpt>
      <trkpt lat="51.228751481217" lon="4.448849076883">
        <ele>0</ele>
        <time>2020-07-18T13:35:07Z</time>
      </trkpt>
      <trkpt lat="51.228748463733" lon="4.448819824052">
        <ele>0</ele>
        <time>2020-07-18T13:35:09Z</time>
      </trkpt>
      <trkpt lat="51.229043674251" lon="4.448500306024">
        <ele>0</ele>
        <time>2020-07-18T13:35:35Z</time>
      </trkpt>
      <trkpt lat="51.229051804694" lon="4.448464766768">
        <ele>0</ele>
        <time>2020-07-18T13:35:38Z</time>
      </trkpt>
      <trkpt lat="51.22906136006" lon="4.448387904745">
        <ele>0</ele>
        <time>2020-07-18T13:35:41Z</time>
      </trkpt>
      <trkpt lat="51.228671434072" lon="4.44774459392">
        <ele>0</ele>
        <time>2020-07-18T13:36:07Z</time>
      </trkpt>
      <trkpt lat="51.228280083161" lon="4.447159285843">
        <ele>0</ele>
        <time>2020-07-18T13:36:29Z</time>
      </trkpt>
      <trkpt lat="51.228260972429" lon="4.447172445426">
        <ele>0</ele>
        <time>2020-07-18T13:36:30Z</time>
      </trkpt>
      <trkpt lat="51.227872722821" lon="4.447771164543">
        <ele>0</ele>
        <time>2020-07-18T13:36:53Z</time>
      </trkpt>
      <trkpt lat="51.227469721069" lon="4.448390922229">
        <ele>0</ele>
        <time>2020-07-18T13:37:18Z</time>
      </trkpt>
      <trkpt lat="51.227112316853" lon="4.449067760654">
        <ele>0</ele>
        <time>2020-07-18T13:37:44Z</time>
      </trkpt>
      <trkpt lat="51.227004190343" lon="4.449430780743">
        <ele>0</ele>
        <time>2020-07-18T13:37:58Z</time>
      </trkpt>
      <trkpt lat="51.226888017209" lon="4.449372191262">
        <ele>0</ele>
        <time>2020-07-18T13:38:32Z</time>
      </trkpt>
      <trkpt lat="51.226802605648" lon="4.449388368329">
        <ele>0</ele>
        <time>2020-07-18T13:38:37Z</time>
      </trkpt>
      <trkpt lat="51.226684420858" lon="4.449510995526">
        <ele>0</ele>
        <time>2020-07-18T13:38:45Z</time>
      </trkpt>
      <trkpt lat="51.226594231614" lon="4.449475288632">
        <ele>0</ele>
        <time>2020-07-18T13:38:50Z</time>
      </trkpt>
      <trkpt lat="51.226289046635" lon="4.448865840683">
        <ele>0</ele>
        <time>2020-07-18T13:39:14Z</time>
      </trkpt>
      <trkpt lat="51.226215453553" lon="4.448900877025">
        <ele>0</ele>
        <time>2020-07-18T13:39:18Z</time>
      </trkpt>
      <trkpt lat="51.225850589446" lon="4.449560700193">
        <ele>0</ele>
        <time>2020-07-18T13:39:38Z</time>
      </trkpt>
      <trkpt lat="51.225302664643" lon="4.449707970176">
        <ele>0</ele>
        <time>2020-07-18T13:39:57Z</time>
      </trkpt>
      <trkpt lat="51.224844258532" lon="4.450129915022">
        <ele>0</ele>
        <time>2020-07-18T13:40:14Z</time>
      </trkpt>
      <trkpt lat="51.22445299144" lon="4.45075621059">
        <ele>0</ele>
        <time>2020-07-18T13:40:30Z</time>
      </trkpt>
      <trkpt lat="51.224386942068" lon="4.450859224141">
        <ele>0</ele>
        <time>2020-07-18T13:40:36Z</time>
      </trkpt>
      <trkpt lat="51.224343440007" lon="4.450917226889">
        <ele>0</ele>
        <time>2020-07-18T13:40:57Z</time>
      </trkpt>
      <trkpt lat="51.223897020013" lon="4.451383009072">
        <ele>0</ele>
        <time>2020-07-18T13:41:21Z</time>
      </trkpt>
      <trkpt lat="51.223342222052" lon="4.4512247588">
        <ele>0</ele>
        <time>2020-07-18T13:41:43Z</time>
      </trkpt>
      <trkpt lat="51.223077940745" lon="4.451137838497">
        <ele>0</ele>
        <time>2020-07-18T13:41:56Z</time>
      </trkpt>
      <trkpt lat="51.222536470005" lon="4.451086541269">
        <ele>0</ele>
        <time>2020-07-18T13:42:20Z</time>
      </trkpt>
      <trkpt lat="51.221993490523" lon="4.451299441529">
        <ele>0</ele>
        <time>2020-07-18T13:42:43Z</time>
      </trkpt>
      <trkpt lat="51.221489067781" lon="4.451583168844">
        <ele>0</ele>
        <time>2020-07-18T13:43:08Z</time>
      </trkpt>
      <trkpt lat="51.220934018363" lon="4.451664473274">
        <ele>0</ele>
        <time>2020-07-18T13:43:28Z</time>
      </trkpt>
      <trkpt lat="51.220405288111" lon="4.451858765716">
        <ele>0</ele>
        <time>2020-07-18T13:43:45Z</time>
      </trkpt>
      <trkpt lat="51.219852669444" lon="4.451976950506">
        <ele>0</ele>
        <time>2020-07-18T13:44:05Z</time>
      </trkpt>
      <trkpt lat="51.219289154307" lon="4.452074599641">
        <ele>0</ele>
        <time>2020-07-18T13:44:24Z</time>
      </trkpt>
      <trkpt lat="51.219005007897" lon="4.452616238019">
        <ele>0</ele>
        <time>2020-07-18T13:44:43Z</time>
      </trkpt>
      <trkpt lat="51.219310863428" lon="4.453348145527">
        <ele>0</ele>
        <time>2020-07-18T13:44:56Z</time>
      </trkpt>
      <trkpt lat="51.219331985816" lon="4.453403633705">
        <ele>0</ele>
        <time>2020-07-18T13:44:57Z</time>
      </trkpt>
      <trkpt lat="51.21957724021" lon="4.454221036593">
        <ele>0</ele>
        <time>2020-07-18T13:45:12Z</time>
      </trkpt>
      <trkpt lat="51.219676062811" lon="4.454622194327">
        <ele>0</ele>
        <time>2020-07-18T13:45:22Z</time>
      </trkpt>
      <trkpt lat="51.220016200313" lon="4.455297440191">
        <ele>0</ele>
        <time>2020-07-18T13:45:41Z</time>
      </trkpt>
      <trkpt lat="51.220024666032" lon="4.455318562579">
        <ele>0</ele>
        <time>2020-07-18T13:45:43Z</time>
      </trkpt>
      <trkpt lat="51.220038077072" lon="4.455464491458">
        <ele>0</ele>
        <time>2020-07-18T13:46:40Z</time>
      </trkpt>
      <trkpt lat="51.22033328759" lon="4.456200506097">
        <ele>0</ele>
        <time>2020-07-18T13:47:05Z</time>
      </trkpt>
      <trkpt lat="51.220443509575" lon="4.457068451842">
        <ele>0</ele>
        <time>2020-07-18T13:47:23Z</time>
      </trkpt>
      <trkpt lat="51.220369497398" lon="4.457931284628">
        <ele>10.2</ele>
        <time>2020-07-18T13:47:41Z</time>
      </trkpt>
      <trkpt lat="51.220394894555" lon="4.458678447194">
        <ele>1.6</ele>
        <time>2020-07-18T13:47:57Z</time>
      </trkpt>
      <trkpt lat="51.220414256744" lon="4.458695881546">
        <ele>1.8</ele>
        <time>2020-07-18T13:47:58Z</time>
      </trkpt>
      <trkpt lat="51.220415346391" lon="4.459053872495">
        <ele>8.8</ele>
        <time>2020-07-18T13:58:18Z</time>
      </trkpt>
      <trkpt lat="51.220393972546" lon="4.459342964226">
        <ele>14.2</ele>
        <time>2020-07-18T13:58:25Z</time>
      </trkpt>
      <trkpt lat="51.220371173778" lon="4.459400966974">
        <ele>18.6</ele>
        <time>2020-07-18T13:58:30Z</time>
      </trkpt>
      <trkpt lat="51.220345608983" lon="4.459560139255">
        <ele>14.2</ele>
        <time>2020-07-18T14:00:07Z</time>
      </trkpt>
      <trkpt lat="51.220335466884" lon="4.459563492015">
        <ele>14</ele>
        <time>2020-07-18T14:00:08Z</time>
      </trkpt>
      <trkpt lat="51.220274446652" lon="4.459646472825">
        <ele>14</ele>
        <time>2020-07-18T14:00:14Z</time>
      </trkpt>
      <trkpt lat="51.219762061105" lon="4.459966996681">
        <ele>13.6</ele>
        <time>2020-07-18T14:00:37Z</time>
      </trkpt>
      <trkpt lat="51.219255626707" lon="4.46028140175">
        <ele>11.6</ele>
        <time>2020-07-18T14:00:52Z</time>
      </trkpt>
      <trkpt lat="51.218714658881" lon="4.460607709117">
        <ele>7.4</ele>
        <time>2020-07-18T14:01:07Z</time>
      </trkpt>
      <trkpt lat="51.218197411832" lon="4.460962934039">
        <ele>0.4</ele>
        <time>2020-07-18T14:01:28Z</time>
      </trkpt>
      <trkpt lat="51.217699107877" lon="4.461337018236">
        <ele>0</ele>
        <time>2020-07-18T14:01:49Z</time>
      </trkpt>
      <trkpt lat="51.21755468774" lon="4.46144313309">
        <ele>0</ele>
        <time>2020-07-18T14:02:02Z</time>
      </trkpt>
      <trkpt lat="51.217484866513" lon="4.461492418662">
        <ele>0</ele>
        <time>2020-07-18T14:02:06Z</time>
      </trkpt>
      <trkpt lat="51.217414290915" lon="4.461628792175">
        <ele>9</ele>
        <time>2020-07-18T14:04:01Z</time>
      </trkpt>
      <trkpt lat="51.216888997242" lon="4.461969935505">
        <ele>8.6</ele>
        <time>2020-07-18T14:04:19Z</time>
      </trkpt>
      <trkpt lat="51.216359177343" lon="4.462294398854">
        <ele>1.6</ele>
        <time>2020-07-18T14:04:35Z</time>
      </trkpt>
      <trkpt lat="51.215855508972" lon="4.462661777531">
        <ele>0</ele>
        <time>2020-07-18T14:04:59Z</time>
      </trkpt>
      <trkpt lat="51.215578319539" lon="4.46280770641">
        <ele>0</ele>
        <time>2020-07-18T14:05:12Z</time>
      </trkpt>
      <trkpt lat="51.21528738379" lon="4.462073703427">
        <ele>0</ele>
        <time>2020-07-18T14:05:38Z</time>
      </trkpt>
      <trkpt lat="51.215060653395" lon="4.461565760287">
        <ele>0</ele>
        <time>2020-07-18T14:05:57Z</time>
      </trkpt>
      <trkpt lat="51.214735938589" lon="4.460844162516">
        <ele>0</ele>
        <time>2020-07-18T14:06:21Z</time>
      </trkpt>
      <trkpt lat="51.21443075361" lon="4.460134969957">
        <ele>0</ele>
        <time>2020-07-18T14:06:43Z</time>
      </trkpt>
      <trkpt lat="51.214214249133" lon="4.459347574271">
        <ele>0</ele>
        <time>2020-07-18T14:07:09Z</time>
      </trkpt>
      <trkpt lat="51.214002606158" lon="4.458559927128">
        <ele>0</ele>
        <time>2020-07-18T14:07:31Z</time>
      </trkpt>
      <trkpt lat="51.213978550105" lon="4.45828399498">
        <ele>0</ele>
        <time>2020-07-18T14:07:40Z</time>
      </trkpt>
      <trkpt lat="51.213672946031" lon="4.457622914527">
        <ele>4.8</ele>
        <time>2020-07-18T14:08:06Z</time>
      </trkpt>
      <trkpt lat="51.213335742194" lon="4.456949512681">
        <ele>0</ele>
        <time>2020-07-18T14:08:27Z</time>
      </trkpt>
      <trkpt lat="51.212820255344" lon="4.456639969114">
        <ele>0</ele>
        <time>2020-07-18T14:08:48Z</time>
      </trkpt>
      <trkpt lat="51.212327818719" lon="4.456262448338">
        <ele>0.2</ele>
        <time>2020-07-18T14:09:10Z</time>
      </trkpt>
      <trkpt lat="51.212005450845" lon="4.455825332253">
        <ele>0</ele>
        <time>2020-07-18T14:09:29Z</time>
      </trkpt>
      <trkpt lat="51.212102848523" lon="4.454969204987">
        <ele>0</ele>
        <time>2020-07-18T14:09:53Z</time>
      </trkpt>
      <trkpt lat="51.212140064159" lon="4.4540746048">
        <ele>0</ele>
        <time>2020-07-18T14:10:19Z</time>
      </trkpt>
      <trkpt lat="51.212161940918" lon="4.453243707053">
        <ele>0</ele>
        <time>2020-07-18T14:10:44Z</time>
      </trkpt>
      <trkpt lat="51.212116846296" lon="4.453210598548">
        <ele>0</ele>
        <time>2020-07-18T14:10:47Z</time>
      </trkpt>
      <trkpt lat="51.211655757977" lon="4.453028040766">
        <ele>0</ele>
        <time>2020-07-18T14:11:09Z</time>
      </trkpt>
      <trkpt lat="51.211931773944" lon="4.45225824707">
        <ele>5.4</ele>
        <time>2020-07-18T14:11:34Z</time>
      </trkpt>
      <trkpt lat="51.212115086097" lon="4.451452830299">
        <ele>2.4</ele>
        <time>2020-07-18T14:12:00Z</time>
      </trkpt>
      <trkpt lat="51.212456061789" lon="4.450820583582">
        <ele>0.6</ele>
        <time>2020-07-18T14:12:31Z</time>
      </trkpt>
      <trkpt lat="51.21267893651" lon="4.450538700285">
        <ele>0</ele>
        <time>2020-07-18T14:12:46Z</time>
      </trkpt>
      <trkpt lat="51.213081183891" lon="4.449967389981">
        <ele>0</ele>
        <time>2020-07-18T14:13:07Z</time>
      </trkpt>
      <trkpt lat="51.213051595784" lon="4.44916113502">
        <ele>0</ele>
        <time>2020-07-18T14:13:34Z</time>
      </trkpt>
      <trkpt lat="51.212747835728" lon="4.448435094842">
        <ele>0</ele>
        <time>2020-07-18T14:14:00Z</time>
      </trkpt>
      <trkpt lat="51.212693688654" lon="4.448390419315">
        <ele>0</ele>
        <time>2020-07-18T14:14:03Z</time>
      </trkpt>
      <trkpt lat="51.212687821324" lon="4.448338451535">
        <ele>0</ele>
        <time>2020-07-18T14:14:06Z</time>
      </trkpt>
      <trkpt lat="51.212630405309" lon="4.448294530379">
        <ele>0</ele>
        <time>2020-07-18T14:14:59Z</time>
      </trkpt>
      <trkpt lat="51.212607103627" lon="4.448275335828">
        <ele>0</ele>
        <time>2020-07-18T14:15:01Z</time>
      </trkpt>
      <trkpt lat="51.212488583561" lon="4.447910052626">
        <ele>0</ele>
        <time>2020-07-18T14:15:16Z</time>
      </trkpt>
      <trkpt lat="51.211984244638" lon="4.447559186292">
        <ele>0</ele>
        <time>2020-07-18T14:15:39Z</time>
      </trkpt>
      <trkpt lat="51.211474708937" lon="4.447221311903">
        <ele>0</ele>
        <time>2020-07-18T14:15:59Z</time>
      </trkpt>
      <trkpt lat="51.211242446488" lon="4.447008411643">
        <ele>0</ele>
        <time>2020-07-18T14:16:09Z</time>
      </trkpt>
      <trkpt lat="51.210800720358" lon="4.446501977245">
        <ele>0</ele>
        <time>2020-07-18T14:16:30Z</time>
      </trkpt>
      <trkpt lat="51.210317420004" lon="4.446114482008">
        <ele>0</ele>
        <time>2020-07-18T14:16:48Z</time>
      </trkpt>
      <trkpt lat="51.209815847108" lon="4.445701505795">
        <ele>0</ele>
        <time>2020-07-18T14:17:06Z</time>
      </trkpt>
      <trkpt lat="51.209325086863" lon="4.445259109113">
        <ele>1</ele>
        <time>2020-07-18T14:17:26Z</time>
      </trkpt>
      <trkpt lat="51.208835751541" lon="4.444838253914">
        <ele>4.6</ele>
        <time>2020-07-18T14:17:46Z</time>
      </trkpt>
      <trkpt lat="51.208463762819" lon="4.444865075994">
        <ele>0.6</ele>
        <time>2020-07-18T14:18:07Z</time>
      </trkpt>
      <trkpt lat="51.208648499895" lon="4.445700164691">
        <ele>0</ele>
        <time>2020-07-18T14:18:28Z</time>
      </trkpt>
      <trkpt lat="51.208844301079" lon="4.446502815435">
        <ele>0</ele>
        <time>2020-07-18T14:18:45Z</time>
      </trkpt>
      <trkpt lat="51.208847821477" lon="4.446583533132">
        <ele>0</ele>
        <time>2020-07-18T14:18:47Z</time>
      </trkpt>
      <trkpt lat="51.208835248627" lon="4.446614294705">
        <ele>0</ele>
        <time>2020-07-18T14:18:50Z</time>
      </trkpt>
      <trkpt lat="51.208827704917" lon="4.44662896303">
        <ele>0</ele>
        <time>2020-07-18T14:19:07Z</time>
      </trkpt>
      <trkpt lat="51.20875956007" lon="4.446669447607">
        <ele>0</ele>
        <time>2020-07-18T14:19:14Z</time>
      </trkpt>
      <trkpt lat="51.208667862084" lon="4.446708171985">
        <ele>1.4</ele>
        <time>2020-07-18T14:19:18Z</time>
      </trkpt>
      <trkpt lat="51.208467534674" lon="4.445893367486">
        <ele>0.2</ele>
        <time>2020-07-18T14:19:38Z</time>
      </trkpt>
      <trkpt lat="51.208370136996" lon="4.445771243203">
        <ele>0</ele>
        <time>2020-07-18T14:19:43Z</time>
      </trkpt>
      <trkpt lat="51.207874599068" lon="4.446139879165">
        <ele>0</ele>
        <time>2020-07-18T14:20:09Z</time>
      </trkpt>
      <trkpt lat="51.207345701178" lon="4.44639594621">
        <ele>0</ele>
        <time>2020-07-18T14:20:31Z</time>
      </trkpt>
      <trkpt lat="51.207037498715" lon="4.446533157913">
        <ele>0</ele>
        <time>2020-07-18T14:20:44Z</time>
      </trkpt>
      <trkpt lat="51.20700941935" lon="4.446214394256">
        <ele>1.8</ele>
        <time>2020-07-18T14:22:42Z</time>
      </trkpt>
      <trkpt lat="51.20710078206" lon="4.445383831785">
        <ele>3</ele>
        <time>2020-07-18T14:23:00Z</time>
      </trkpt>
      <trkpt lat="51.206730050623" lon="4.444843785968">
        <ele>1</ele>
        <time>2020-07-18T14:23:16Z</time>
      </trkpt>
      <trkpt lat="51.206208612624" lon="4.444614708641">
        <ele>0</ele>
        <time>2020-07-18T14:23:33Z</time>
      </trkpt>
      <trkpt lat="51.205756492938" lon="4.444113806297">
        <ele>0</ele>
        <time>2020-07-18T14:23:57Z</time>
      </trkpt>
      <trkpt lat="51.2053791398" lon="4.442901196824">
        <ele>0</ele>
        <time>2020-07-18T14:24:28Z</time>
      </trkpt>
      <trkpt lat="51.205187948661" lon="4.442079686805">
        <ele>0.4</ele>
        <time>2020-07-18T14:24:49Z</time>
      </trkpt>
      <trkpt lat="51.204863904407" lon="4.441355658283">
        <ele>0</ele>
        <time>2020-07-18T14:25:09Z</time>
      </trkpt>
      <trkpt lat="51.204429302892" lon="4.440819887235">
        <ele>6</ele>
        <time>2020-07-18T14:25:34Z</time>
      </trkpt>
      <trkpt lat="51.203949774393" lon="4.440385956272">
        <ele>3.6</ele>
        <time>2020-07-18T14:25:54Z</time>
      </trkpt>
      <trkpt lat="51.203454068827" lon="4.439981864873">
        <ele>0</ele>
        <time>2020-07-18T14:26:09Z</time>
      </trkpt>
      <trkpt lat="51.203134131704" lon="4.439880192426">
        <ele>0</ele>
        <time>2020-07-18T14:26:21Z</time>
      </trkpt>
      <trkpt lat="51.203138741749" lon="4.440743611945">
        <ele>0</ele>
        <time>2020-07-18T14:26:39Z</time>
      </trkpt>
      <trkpt lat="51.203126420356" lon="4.441601331772">
        <ele>0</ele>
        <time>2020-07-18T14:26:57Z</time>
      </trkpt>
      <trkpt lat="51.203110494746" lon="4.442483359109">
        <ele>0</ele>
        <time>2020-07-18T14:27:15Z</time>
      </trkpt>
      <trkpt lat="51.202937324692" lon="4.443241585783">
        <ele>0</ele>
        <time>2020-07-18T14:27:38Z</time>
      </trkpt>
      <trkpt lat="51.202926344403" lon="4.444118919256">
        <ele>0</ele>
        <time>2020-07-18T14:27:57Z</time>
      </trkpt>
      <trkpt lat="51.202889128767" lon="4.445004718448">
        <ele>0</ele>
        <time>2020-07-18T14:28:19Z</time>
      </trkpt>
      <trkpt lat="51.202912262811" lon="4.445807285373">
        <ele>0</ele>
        <time>2020-07-18T14:28:42Z</time>
      </trkpt>
      <trkpt lat="51.202368780415" lon="4.446029489542">
        <ele>26</ele>
        <time>2020-07-18T14:29:10Z</time>
      </trkpt>
      <trkpt lat="51.201831165349" lon="4.446127641591">
        <ele>19.8</ele>
        <time>2020-07-18T14:29:40Z</time>
      </trkpt>
      <trkpt lat="51.201289526971" lon="4.446163599942">
        <ele>20.2</ele>
        <time>2020-07-18T14:30:03Z</time>
      </trkpt>
      <trkpt lat="51.200724251635" lon="4.446293016478">
        <ele>7.2</ele>
        <time>2020-07-18T14:30:22Z</time>
      </trkpt>
      <trkpt lat="51.200631128726" lon="4.446318413635">
        <ele>6.4</ele>
        <time>2020-07-18T14:30:27Z</time>
      </trkpt>
      <trkpt lat="51.200484194019" lon="4.447164817897">
        <ele>9</ele>
        <time>2020-07-18T14:30:48Z</time>
      </trkpt>
      <trkpt lat="51.200371122188" lon="4.447996134739">
        <ele>0</ele>
        <time>2020-07-18T14:31:06Z</time>
      </trkpt>
      <trkpt lat="51.20023013863" lon="4.448854525118">
        <ele>0</ele>
        <time>2020-07-18T14:31:23Z</time>
      </trkpt>
      <trkpt lat="51.200084628846" lon="4.449685255227">
        <ele>0</ele>
        <time>2020-07-18T14:31:42Z</time>
      </trkpt>
      <trkpt lat="51.200042132613" lon="4.449998738287">
        <ele>0</ele>
        <time>2020-07-18T14:31:49Z</time>
      </trkpt>
      <trkpt lat="51.199891258413" lon="4.44992472611">
        <ele>0</ele>
        <time>2020-07-18T14:31:55Z</time>
      </trkpt>
      <trkpt lat="51.199861502668" lon="4.449888851578">
        <ele>0</ele>
        <time>2020-07-18T14:31:58Z</time>
      </trkpt>
      <trkpt lat="51.199846750524" lon="4.449900586238">
        <ele>0</ele>
        <time>2020-07-18T14:32:00Z</time>
      </trkpt>
      <trkpt lat="51.199786400844" lon="4.450102841485">
        <ele>6</ele>
        <time>2020-07-18T14:35:08Z</time>
      </trkpt>
      <trkpt lat="51.199768631216" lon="4.450153384342">
        <ele>6.2</ele>
        <time>2020-07-18T14:35:10Z</time>
      </trkpt>
      <trkpt lat="51.199759494945" lon="4.450289422579">
        <ele>6.2</ele>
        <time>2020-07-18T14:35:16Z</time>
      </trkpt>
      <trkpt lat="51.199949261161" lon="4.450293613529">
        <ele>5.2</ele>
        <time>2020-07-18T14:36:20Z</time>
      </trkpt>
      <trkpt lat="51.200264336782" lon="4.4502943679">
        <ele>2.4</ele>
        <time>2020-07-18T14:36:34Z</time>
      </trkpt>
      <trkpt lat="51.200538089636" lon="4.451033483842">
        <ele>0</ele>
        <time>2020-07-18T14:36:51Z</time>
      </trkpt>
      <trkpt lat="51.200978893757" lon="4.451505300993">
        <ele>0</ele>
        <time>2020-07-18T14:37:11Z</time>
      </trkpt>
      <trkpt lat="51.201331687928" lon="4.451649888768">
        <ele>0</ele>
        <time>2020-07-18T14:37:25Z</time>
      </trkpt>
      <trkpt lat="51.201859915266" lon="4.451690038069">
        <ele>0</ele>
        <time>2020-07-18T14:37:41Z</time>
      </trkpt>
      <trkpt lat="51.20241027082" lon="4.451711328095">
        <ele>0</ele>
        <time>2020-07-18T14:37:59Z</time>
      </trkpt>
      <trkpt lat="51.202966577523" lon="4.451905955813">
        <ele>0</ele>
        <time>2020-07-18T14:38:17Z</time>
      </trkpt>
      <trkpt lat="51.203508970272" lon="4.451792800163">
        <ele>0</ele>
        <time>2020-07-18T14:38:39Z</time>
      </trkpt>
      <trkpt lat="51.203536965818" lon="4.451806295022">
        <ele>0</ele>
        <time>2020-07-18T14:38:40Z</time>
      </trkpt>
      <trkpt lat="51.203460271433" lon="4.452482295257">
        <ele>0</ele>
        <time>2020-07-18T14:38:58Z</time>
      </trkpt>
      <trkpt lat="51.203413081336" lon="4.452465447638">
        <ele>0</ele>
        <time>2020-07-18T14:39:00Z</time>
      </trkpt>
      <trkpt lat="51.203275450538" lon="4.451795314733">
        <ele>0</ele>
        <time>2020-07-18T14:39:22Z</time>
      </trkpt>
      <trkpt lat="51.203326244852" lon="4.450966680099">
        <ele>0</ele>
        <time>2020-07-18T14:39:42Z</time>
      </trkpt>
      <trkpt lat="51.203318114409" lon="4.450835084269">
        <ele>0</ele>
        <time>2020-07-18T14:39:46Z</time>
      </trkpt>
      <trkpt lat="51.202777062764" lon="4.450632074651">
        <ele>2.8</ele>
        <time>2020-07-18T14:40:05Z</time>
      </trkpt>
      <trkpt lat="51.202241207897" lon="4.450540041389">
        <ele>5</ele>
        <time>2020-07-18T14:40:23Z</time>
      </trkpt>
      <trkpt lat="51.201686326117" lon="4.450554793533">
        <ele>2.4</ele>
        <time>2020-07-18T14:40:41Z</time>
      </trkpt>
      <trkpt lat="51.201125744645" lon="4.450449600688">
        <ele>3.8</ele>
        <time>2020-07-18T14:41:01Z</time>
      </trkpt>
      <trkpt lat="51.20060061861" lon="4.450602486544">
        <ele>0.2</ele>
        <time>2020-07-18T14:41:22Z</time>
      </trkpt>
      <trkpt lat="51.200125448699" lon="4.451021749182">
        <ele>0</ele>
        <time>2020-07-18T14:41:49Z</time>
      </trkpt>
      <trkpt lat="51.199684728397" lon="4.451544695923">
        <ele>0</ele>
        <time>2020-07-18T14:42:17Z</time>
      </trkpt>
      <trkpt lat="51.199322965593" lon="4.452199909046">
        <ele>0</ele>
        <time>2020-07-18T14:42:44Z</time>
      </trkpt>
      <trkpt lat="51.199162536027" lon="4.452675330414">
        <ele>0.4</ele>
        <time>2020-07-18T14:43:04Z</time>
      </trkpt>
      <trkpt lat="51.198773699686" lon="4.453259716482">
        <ele>3.2</ele>
        <time>2020-07-18T14:43:28Z</time>
      </trkpt>
      <trkpt lat="51.198535234631" lon="4.454056751353">
        <ele>0.4</ele>
        <time>2020-07-18T14:43:48Z</time>
      </trkpt>
      <trkpt lat="51.198535821364" lon="4.454132859005">
        <ele>0</ele>
        <time>2020-07-18T14:43:49Z</time>
      </trkpt>
      <trkpt lat="51.19897117725" lon="4.454609286201">
        <ele>0</ele>
        <time>2020-07-18T14:44:12Z</time>
      </trkpt>
      <trkpt lat="51.199496051828" lon="4.45481724114">
        <ele>0</ele>
        <time>2020-07-18T14:44:41Z</time>
      </trkpt>
      <trkpt lat="51.199761422782" lon="4.454494454171">
        <ele>0</ele>
        <time>2020-07-18T14:44:56Z</time>
      </trkpt>
      <trkpt lat="51.200254949054" lon="4.454896198638">
        <ele>1.6</ele>
        <time>2020-07-18T14:45:20Z</time>
      </trkpt>
      <trkpt lat="51.2007607129" lon="4.455251675017">
        <ele>0.4</ele>
        <time>2020-07-18T14:45:43Z</time>
      </trkpt>
      <trkpt lat="51.201025497121" lon="4.455571276864">
        <ele>0.4</ele>
        <time>2020-07-18T14:45:57Z</time>
      </trkpt>
      <trkpt lat="51.201109567578" lon="4.456442826826">
        <ele>2.6</ele>
        <time>2020-07-18T14:46:21Z</time>
      </trkpt>
      <trkpt lat="51.200739925788" lon="4.45703593007">
        <ele>4.8</ele>
        <time>2020-07-18T14:46:43Z</time>
      </trkpt>
      <trkpt lat="51.200290655948" lon="4.457509172144">
        <ele>2.6</ele>
        <time>2020-07-18T14:47:02Z</time>
      </trkpt>
      <trkpt lat="51.199960325269" lon="4.457737159824">
        <ele>0</ele>
        <time>2020-07-18T14:47:19Z</time>
      </trkpt>
      <trkpt lat="51.200437506836" lon="4.457917035398">
        <ele>0</ele>
        <time>2020-07-18T14:47:47Z</time>
      </trkpt>
      <trkpt lat="51.200978558481" lon="4.457825756507">
        <ele>0</ele>
        <time>2020-07-18T14:48:07Z</time>
      </trkpt>
      <trkpt lat="51.201429420882" lon="4.457801951911">
        <ele>5.2</ele>
        <time>2020-07-18T14:48:24Z</time>
      </trkpt>
      <trkpt lat="51.201423218276" lon="4.457889542766">
        <ele>5.4</ele>
        <time>2020-07-18T14:48:26Z</time>
      </trkpt>
      <trkpt lat="51.201086601172" lon="4.458605189388">
        <ele>3.4</ele>
        <time>2020-07-18T14:48:46Z</time>
      </trkpt>
      <trkpt lat="51.200666248887" lon="4.459186474153">
        <ele>7</ele>
        <time>2020-07-18T14:49:06Z</time>
      </trkpt>
      <trkpt lat="51.200208680966" lon="4.459667259937">
        <ele>7.4</ele>
        <time>2020-07-18T14:49:26Z</time>
      </trkpt>
      <trkpt lat="51.200069373788" lon="4.459335420516">
        <ele>0.8</ele>
        <time>2020-07-18T14:49:41Z</time>
      </trkpt>
      <trkpt lat="51.200039282767" lon="4.45933340886">
        <ele>0</ele>
        <time>2020-07-18T14:49:43Z</time>
      </trkpt>
      <trkpt lat="51.200097620791" lon="4.459666254109">
        <ele>0</ele>
        <time>2020-07-18T14:49:55Z</time>
      </trkpt>
      <trkpt lat="51.200124191414" lon="4.45965275925">
        <ele>0</ele>
        <time>2020-07-18T14:49:57Z</time>
      </trkpt>
      <trkpt lat="51.200151264951" lon="4.459621997677">
        <ele>0</ele>
        <time>2020-07-18T14:49:59Z</time>
      </trkpt>
      <trkpt lat="51.200198203591" lon="4.459659883865">
        <ele>0</ele>
        <time>2020-07-18T14:50:02Z</time>
      </trkpt>
      <trkpt lat="51.200183535266" lon="4.459693914379">
        <ele>0</ele>
        <time>2020-07-18T14:50:04Z</time>
      </trkpt>
      <trkpt lat="51.2000901609" lon="4.46046077441">
        <ele>0</ele>
        <time>2020-07-18T14:50:28Z</time>
      </trkpt>
      <trkpt lat="51.200227288784" lon="4.461307849224">
        <ele>7.4</ele>
        <time>2020-07-18T14:50:45Z</time>
      </trkpt>
      <trkpt lat="51.200341282624" lon="4.462157354789">
        <ele>19.8</ele>
        <time>2020-07-18T14:51:01Z</time>
      </trkpt>
      <trkpt lat="51.200429544031" lon="4.463058073763">
        <ele>15.4</ele>
        <time>2020-07-18T14:51:19Z</time>
      </trkpt>
      <trkpt lat="51.200540855663" lon="4.463907244052">
        <ele>13.8</ele>
        <time>2020-07-18T14:51:36Z</time>
      </trkpt>
      <trkpt lat="51.200559882576" lon="4.464703943647">
        <ele>8.6</ele>
        <time>2020-07-18T14:51:54Z</time>
      </trkpt>
      <trkpt lat="51.200212285183" lon="4.464195078498">
        <ele>0</ele>
        <time>2020-07-18T14:52:13Z</time>
      </trkpt>
      <trkpt lat="51.199904585634" lon="4.463593006621">
        <ele>0</ele>
        <time>2020-07-18T14:52:34Z</time>
      </trkpt>
      <trkpt lat="51.199700737826" lon="4.463780509724">
        <ele>2</ele>
        <time>2020-07-18T14:52:44Z</time>
      </trkpt>
      <trkpt lat="51.199488172842" lon="4.46400631811">
        <ele>0.2</ele>
        <time>2020-07-18T14:53:53Z</time>
      </trkpt>
      <trkpt lat="51.199484652444" lon="4.46398703974">
        <ele>0.2</ele>
        <time>2020-07-18T14:53:55Z</time>
      </trkpt>
      <trkpt lat="51.19914132982" lon="4.463833064237">
        <ele>3</ele>
        <time>2020-07-18T14:54:15Z</time>
      </trkpt>
      <trkpt lat="51.199106880211" lon="4.463848822209">
        <ele>5.4</ele>
        <time>2020-07-18T14:54:23Z</time>
      </trkpt>
      <trkpt lat="51.199087350384" lon="4.463845217992">
        <ele>5.4</ele>
        <time>2020-07-18T14:54:25Z</time>
      </trkpt>
      <trkpt lat="51.198594410845" lon="4.463598706313">
        <ele>5.2</ele>
        <time>2020-07-18T14:54:49Z</time>
      </trkpt>
      <trkpt lat="51.198387377915" lon="4.463427547915">
        <ele>1.2</ele>
        <time>2020-07-18T14:55:03Z</time>
      </trkpt>
      <trkpt lat="51.198342786207" lon="4.463394523229">
        <ele>0</ele>
        <time>2020-07-18T14:55:13Z</time>
      </trkpt>
      <trkpt lat="51.198329375167" lon="4.46340617407">
        <ele>0</ele>
        <time>2020-07-18T14:55:14Z</time>
      </trkpt>
      <trkpt lat="51.19782788609" lon="4.463747149762">
        <ele>11</ele>
        <time>2020-07-18T14:55:40Z</time>
      </trkpt>
      <trkpt lat="51.197304939349" lon="4.463503739386">
        <ele>11</ele>
        <time>2020-07-18T14:56:04Z</time>
      </trkpt>
      <trkpt lat="51.196898584837" lon="4.46320919942">
        <ele>0</ele>
        <time>2020-07-18T14:56:23Z</time>
      </trkpt>
      <trkpt lat="51.196877043354" lon="4.463245325409">
        <ele>0</ele>
        <time>2020-07-18T14:56:25Z</time>
      </trkpt>
      <trkpt lat="51.196678140867" lon="4.464080665563">
        <ele>0</ele>
        <time>2020-07-18T14:56:46Z</time>
      </trkpt>
      <trkpt lat="51.196523159536" lon="4.464947521661">
        <ele>0</ele>
        <time>2020-07-18T14:57:04Z</time>
      </trkpt>
      <trkpt lat="51.196488374651" lon="4.46582016127">
        <ele>0</ele>
        <time>2020-07-18T14:57:23Z</time>
      </trkpt>
      <trkpt lat="51.19685558569" lon="4.466150743406">
        <ele>0</ele>
        <time>2020-07-18T14:57:41Z</time>
      </trkpt>
      <trkpt lat="51.197323211891" lon="4.466220313176">
        <ele>2.6</ele>
        <time>2020-07-18T14:57:53Z</time>
      </trkpt>
      <trkpt lat="51.197330504144" lon="4.466270101662">
        <ele>3.2</ele>
        <time>2020-07-18T14:57:55Z</time>
      </trkpt>
      <trkpt lat="51.19731826657" lon="4.467176101233">
        <ele>10.6</ele>
        <time>2020-07-18T14:58:11Z</time>
      </trkpt>
      <trkpt lat="51.1973660434" lon="4.467629981118">
        <ele>14.6</ele>
        <time>2020-07-18T14:58:22Z</time>
      </trkpt>
      <trkpt lat="51.197906173036" lon="4.467751853944">
        <ele>12</ele>
        <time>2020-07-18T14:58:39Z</time>
      </trkpt>
      <trkpt lat="51.198431215252" lon="4.468261138188">
        <ele>10.6</ele>
        <time>2020-07-18T14:58:58Z</time>
      </trkpt>
      <trkpt lat="51.198899009091" lon="4.468732955339">
        <ele>15.8</ele>
        <time>2020-07-18T14:59:13Z</time>
      </trkpt>
      <trkpt lat="51.199318020272" lon="4.468600186043">
        <ele>8.2</ele>
        <time>2020-07-18T14:59:33Z</time>
      </trkpt>
      <trkpt lat="51.199569728729" lon="4.467810778701">
        <ele>3.8</ele>
        <time>2020-07-18T14:59:49Z</time>
      </trkpt>
      <trkpt lat="51.199711047563" lon="4.467265703744">
        <ele>5</ele>
        <time>2020-07-18T15:00:04Z</time>
      </trkpt>
      <trkpt lat="51.199630162228" lon="4.467230667402">
        <ele>24.8</ele>
        <time>2020-07-18T15:09:05Z</time>
      </trkpt>
      <trkpt lat="51.19973309196" lon="4.467080547573">
        <ele>24.2</ele>
        <time>2020-07-18T15:09:10Z</time>
      </trkpt>
      <trkpt lat="51.199763602076" lon="4.467071076026">
        <ele>24.2</ele>
        <time>2020-07-18T15:09:14Z</time>
      </trkpt>
      <trkpt lat="51.200091669642" lon="4.466381078018">
        <ele>24.2</ele>
        <time>2020-07-18T15:09:35Z</time>
      </trkpt>
      <trkpt lat="51.200403476322" lon="4.465666353405">
        <ele>19.8</ele>
        <time>2020-07-18T15:09:56Z</time>
      </trkpt>
      <trkpt lat="51.200402302856" lon="4.465657971505">
        <ele>19</ele>
        <time>2020-07-18T15:09:59Z</time>
      </trkpt>
      <trkpt lat="51.200369445808" lon="4.465589156106">
        <ele>16.2</ele>
        <time>2020-07-18T15:10:38Z</time>
      </trkpt>
      <trkpt lat="51.200642779567" lon="4.464840484798">
        <ele>12</ele>
        <time>2020-07-18T15:11:01Z</time>
      </trkpt>
      <trkpt lat="51.200654011313" lon="4.464663626708">
        <ele>10.2</ele>
        <time>2020-07-18T15:11:05Z</time>
      </trkpt>
      <trkpt lat="51.200708577482" lon="4.464643929243">
        <ele>8.6</ele>
        <time>2020-07-18T15:11:09Z</time>
      </trkpt>
      <trkpt lat="51.200798347631" lon="4.464809471768">
        <ele>5.4</ele>
        <time>2020-07-18T15:11:16Z</time>
      </trkpt>
      <trkpt lat="51.201334537774" lon="4.464663123794">
        <ele>3.2</ele>
        <time>2020-07-18T15:11:35Z</time>
      </trkpt>
      <trkpt lat="51.201874080677" lon="4.464457096692">
        <ele>1.4</ele>
        <time>2020-07-18T15:11:54Z</time>
      </trkpt>
      <trkpt lat="51.202395267219" lon="4.464215530334">
        <ele>4.8</ele>
        <time>2020-07-18T15:12:10Z</time>
      </trkpt>
      <trkpt lat="51.202901617798" lon="4.463843541612">
        <ele>8.2</ele>
        <time>2020-07-18T15:12:31Z</time>
      </trkpt>
      <trkpt lat="51.203424815996" lon="4.46358387035">
        <ele>7</ele>
        <time>2020-07-18T15:12:48Z</time>
      </trkpt>
      <trkpt lat="51.203970226229" lon="4.4637473174">
        <ele>8</ele>
        <time>2020-07-18T15:13:05Z</time>
      </trkpt>
      <trkpt lat="51.204504488535" lon="4.463991817423">
        <ele>7</ele>
        <time>2020-07-18T15:13:21Z</time>
      </trkpt>
      <trkpt lat="51.205047384198" lon="4.464232294134">
        <ele>4.6</ele>
        <time>2020-07-18T15:13:36Z</time>
      </trkpt>
      <trkpt lat="51.205247627789" lon="4.464330110907">
        <ele>4</ele>
        <time>2020-07-18T15:13:43Z</time>
      </trkpt>
      <trkpt lat="51.205781806276" lon="4.464625489063">
        <ele>3</ele>
        <time>2020-07-18T15:14:09Z</time>
      </trkpt>
      <trkpt lat="51.205986576093" lon="4.464687850399">
        <ele>1.4</ele>
        <time>2020-07-18T15:14:17Z</time>
      </trkpt>
      <trkpt lat="51.206022702082" lon="4.464711822633">
        <ele>0.8</ele>
        <time>2020-07-18T15:14:19Z</time>
      </trkpt>
      <trkpt lat="51.206053715112" lon="4.464734789039">
        <ele>0.2</ele>
        <time>2020-07-18T15:14:21Z</time>
      </trkpt>
      <trkpt lat="51.206101911037" lon="4.46471877961">
        <ele>0</ele>
        <time>2020-07-18T15:14:24Z</time>
      </trkpt>
      <trkpt lat="51.206609518901" lon="4.465020025096">
        <ele>8.2</ele>
        <time>2020-07-18T15:14:46Z</time>
      </trkpt>
      <trkpt lat="51.207150151451" lon="4.465262513463">
        <ele>11.2</ele>
        <time>2020-07-18T15:15:01Z</time>
      </trkpt>
      <trkpt lat="51.207628338846" lon="4.465078698396">
        <ele>5</ele>
        <time>2020-07-18T15:15:19Z</time>
      </trkpt>
      <trkpt lat="51.207925644839" lon="4.464324075939">
        <ele>10.6</ele>
        <time>2020-07-18T15:15:51Z</time>
      </trkpt>
      <trkpt lat="51.208247845075" lon="4.463623935832">
        <ele>8.4</ele>
        <time>2020-07-18T15:16:14Z</time>
      </trkpt>
      <trkpt lat="51.208811108755" lon="4.463544978334">
        <ele>11.8</ele>
        <time>2020-07-18T15:16:32Z</time>
      </trkpt>
      <trkpt lat="51.20936808601" lon="4.463563586152">
        <ele>9</ele>
        <time>2020-07-18T15:16:48Z</time>
      </trkpt>
      <trkpt lat="51.209551817258" lon="4.463650674093">
        <ele>2</ele>
        <time>2020-07-18T15:16:53Z</time>
      </trkpt>
      <trkpt lat="51.209607389255" lon="4.463759387336">
        <ele>0</ele>
        <time>2020-07-18T15:16:57Z</time>
      </trkpt>
      <trkpt lat="51.209600599916" lon="4.46379928518">
        <ele>0</ele>
        <time>2020-07-18T15:17:37Z</time>
      </trkpt>
      <trkpt lat="51.209660781958" lon="4.463804817234">
        <ele>0</ele>
        <time>2020-07-18T15:17:41Z</time>
      </trkpt>
      <trkpt lat="51.210202420336" lon="4.463891988994">
        <ele>0</ele>
        <time>2020-07-18T15:18:02Z</time>
      </trkpt>
      <trkpt lat="51.210592933057" lon="4.46403984571">
        <ele>0</ele>
        <time>2020-07-18T15:18:12Z</time>
      </trkpt>
      <trkpt lat="51.21114001967" lon="4.464238832016">
        <ele>0</ele>
        <time>2020-07-18T15:18:25Z</time>
      </trkpt>
      <trkpt lat="51.211381753666" lon="4.464233886695">
        <ele>0</ele>
        <time>2020-07-18T15:18:31Z</time>
      </trkpt>
      <trkpt lat="51.211459537698" lon="4.464299936067">
        <ele>0</ele>
        <time>2020-07-18T15:18:33Z</time>
      </trkpt>
      <trkpt lat="51.211498178257" lon="4.464414181364">
        <ele>0</ele>
        <time>2020-07-18T15:18:35Z</time>
      </trkpt>
      <trkpt lat="51.211673192329" lon="4.465167043622">
        <ele>0</ele>
        <time>2020-07-18T15:18:51Z</time>
      </trkpt>
      <trkpt lat="51.212190523197" lon="4.465390505076">
        <ele>0</ele>
        <time>2020-07-18T15:19:09Z</time>
      </trkpt>
      <trkpt lat="51.212716068327" lon="4.465218257031">
        <ele>0</ele>
        <time>2020-07-18T15:19:36Z</time>
      </trkpt>
      <trkpt lat="51.213242535466" lon="4.46538597885">
        <ele>0</ele>
        <time>2020-07-18T15:19:57Z</time>
      </trkpt>
      <trkpt lat="51.213758776687" lon="4.465219095221">
        <ele>0</ele>
        <time>2020-07-18T15:20:25Z</time>
      </trkpt>
      <trkpt lat="51.21428155579" lon="4.465005524409">
        <ele>0</ele>
        <time>2020-07-18T15:20:45Z</time>
      </trkpt>
      <trkpt lat="51.214826966023" lon="4.464773681055">
        <ele>0</ele>
        <time>2020-07-18T15:21:04Z</time>
      </trkpt>
      <trkpt lat="51.215323174503" lon="4.464331452011">
        <ele>0</ele>
        <time>2020-07-18T15:21:21Z</time>
      </trkpt>
      <trkpt lat="51.215811755454" lon="4.464196000507">
        <ele>0</ele>
        <time>2020-07-18T15:21:35Z</time>
      </trkpt>
      <trkpt lat="51.216325314467" lon="4.46450923211">
        <ele>0</ele>
        <time>2020-07-18T15:21:52Z</time>
      </trkpt>
      <trkpt lat="51.216777937067" lon="4.465037543267">
        <ele>0</ele>
        <time>2020-07-18T15:22:09Z</time>
      </trkpt>
      <trkpt lat="51.217038530338" lon="4.465798535968">
        <ele>0</ele>
        <time>2020-07-18T15:22:26Z</time>
      </trkpt>
      <trkpt lat="51.217205246329" lon="4.466655920519">
        <ele>0</ele>
        <time>2020-07-18T15:22:44Z</time>
      </trkpt>
      <trkpt lat="51.217579414345" lon="4.467057748805">
        <ele>0</ele>
        <time>2020-07-18T15:23:05Z</time>
      </trkpt>
      <trkpt lat="51.217615707972" lon="4.46705732971">
        <ele>0</ele>
        <time>2020-07-18T15:23:08Z</time>
      </trkpt>
      <trkpt lat="51.218008064711" lon="4.467062694126">
        <ele>0.8</ele>
        <time>2020-07-18T15:24:18Z</time>
      </trkpt>
      <trkpt lat="51.2180274269" lon="4.467031429639">
        <ele>0</ele>
        <time>2020-07-18T15:32:41Z</time>
      </trkpt>
      <trkpt lat="51.218121136542" lon="4.467019862617">
        <ele>1.2</ele>
        <time>2020-07-18T15:34:00Z</time>
      </trkpt>
      <trkpt lat="51.218425902426" lon="4.467023550653">
        <ele>0</ele>
        <time>2020-07-18T15:34:23Z</time>
      </trkpt>
      <trkpt lat="51.218936946869" lon="4.466869910426">
        <ele>0</ele>
        <time>2020-07-18T15:34:44Z</time>
      </trkpt>
      <trkpt lat="51.219266187901" lon="4.466188545775">
        <ele>0</ele>
        <time>2020-07-18T15:35:06Z</time>
      </trkpt>
      <trkpt lat="51.219447656036" lon="4.465378016045">
        <ele>0</ele>
        <time>2020-07-18T15:35:27Z</time>
      </trkpt>
      <trkpt lat="51.21940960221" lon="4.464508645377">
        <ele>0</ele>
        <time>2020-07-18T15:35:47Z</time>
      </trkpt>
      <trkpt lat="51.219472969374" lon="4.463636089587">
        <ele>0</ele>
        <time>2020-07-18T15:36:05Z</time>
      </trkpt>
      <trkpt lat="51.219481938007" lon="4.463306680917">
        <ele>1.2</ele>
        <time>2020-07-18T15:36:12Z</time>
      </trkpt>
      <trkpt lat="51.21979852237" lon="4.463125967153">
        <ele>0</ele>
        <time>2020-07-18T15:36:27Z</time>
      </trkpt>
      <trkpt lat="51.219838001119" lon="4.462268331145">
        <ele>6.4</ele>
        <time>2020-07-18T15:36:43Z</time>
      </trkpt>
      <trkpt lat="51.220045704601" lon="4.461464674573">
        <ele>10.8</ele>
        <time>2020-07-18T15:36:57Z</time>
      </trkpt>
      <trkpt lat="51.220276039213" lon="4.460688175357">
        <ele>7.8</ele>
        <time>2020-07-18T15:37:14Z</time>
      </trkpt>
      <trkpt lat="51.220347955915" lon="4.459819810517">
        <ele>7.4</ele>
        <time>2020-07-18T15:37:36Z</time>
      </trkpt>
      <trkpt lat="51.220358936204" lon="4.458957396826">
        <ele>4.6</ele>
        <time>2020-07-18T15:37:56Z</time>
      </trkpt>
      <trkpt lat="51.220367066647" lon="4.458068831607">
        <ele>6.6</ele>
        <time>2020-07-18T15:38:13Z</time>
      </trkpt>
      <trkpt lat="51.220347453001" lon="4.457197868378">
        <ele>11.4</ele>
        <time>2020-07-18T15:38:30Z</time>
      </trkpt>
      <trkpt lat="51.220236392826" lon="4.456320283448">
        <ele>17.2</ele>
        <time>2020-07-18T15:38:48Z</time>
      </trkpt>
      <trkpt lat="51.219923496499" lon="4.455574629624">
        <ele>6.8</ele>
        <time>2020-07-18T15:39:06Z</time>
      </trkpt>
      <trkpt lat="51.219650246559" lon="4.45483400494">
        <ele>2.2</ele>
        <time>2020-07-18T15:39:25Z</time>
      </trkpt>
      <trkpt lat="51.219432736254" lon="4.454006962867">
        <ele>0</ele>
        <time>2020-07-18T15:39:41Z</time>
      </trkpt>
      <trkpt lat="51.219001068404" lon="4.453780567748">
        <ele>0</ele>
        <time>2020-07-18T15:39:58Z</time>
      </trkpt>
      <trkpt lat="51.218896881387" lon="4.453877965426">
        <ele>0</ele>
        <time>2020-07-18T15:40:02Z</time>
      </trkpt>
      <trkpt lat="51.218613070253" lon="4.45329005896">
        <ele>0</ele>
        <time>2020-07-18T15:40:17Z</time>
      </trkpt>
      <trkpt lat="51.218530508538" lon="4.453286622381">
        <ele>0</ele>
        <time>2020-07-18T15:40:20Z</time>
      </trkpt>
      <trkpt lat="51.218243260825" lon="4.453534558983">
        <ele>0</ele>
        <time>2020-07-18T15:40:30Z</time>
      </trkpt>
      <trkpt lat="51.218210571415" lon="4.453493906768">
        <ele>0</ele>
        <time>2020-07-18T15:40:32Z</time>
      </trkpt>
      <trkpt lat="51.218273770941" lon="4.452606766472">
        <ele>0</ele>
        <time>2020-07-18T15:40:50Z</time>
      </trkpt>
      <trkpt lat="51.218389189704" lon="4.451916768464">
        <ele>0</ele>
        <time>2020-07-18T15:41:04Z</time>
      </trkpt>
      <trkpt lat="51.218455239076" lon="4.451821969175">
        <ele>0</ele>
        <time>2020-07-18T15:41:06Z</time>
      </trkpt>
      <trkpt lat="51.218547272338" lon="4.451784585901">
        <ele>0</ele>
        <time>2020-07-18T15:41:08Z</time>
      </trkpt>
      <trkpt lat="51.218788335782" lon="4.451775868725">
        <ele>0</ele>
        <time>2020-07-18T15:41:13Z</time>
      </trkpt>
      <trkpt lat="51.219103495222" lon="4.452104523024">
        <ele>0</ele>
        <time>2020-07-18T15:41:25Z</time>
      </trkpt>
      <trkpt lat="51.219642367573" lon="4.451989774813">
        <ele>0</ele>
        <time>2020-07-18T15:41:43Z</time>
      </trkpt>
      <trkpt lat="51.220204038692" lon="4.451880055742">
        <ele>0</ele>
        <time>2020-07-18T15:42:01Z</time>
      </trkpt>
      <trkpt lat="51.220758920472" lon="4.451815179836">
        <ele>0</ele>
        <time>2020-07-18T15:42:15Z</time>
      </trkpt>
      <trkpt lat="51.221321429781" lon="4.451662126342">
        <ele>0</ele>
        <time>2020-07-18T15:42:30Z</time>
      </trkpt>
      <trkpt lat="51.221874132267" lon="4.45139072042">
        <ele>0</ele>
        <time>2020-07-18T15:42:42Z</time>
      </trkpt>
      <trkpt lat="51.221920148898" lon="4.451356689906">
        <ele>0</ele>
        <time>2020-07-18T15:42:43Z</time>
      </trkpt>
      <trkpt lat="51.222451728996" lon="4.451080087206">
        <ele>0</ele>
        <time>2020-07-18T15:42:56Z</time>
      </trkpt>
      <trkpt lat="51.223019351264" lon="4.451097186282">
        <ele>0</ele>
        <time>2020-07-18T15:43:12Z</time>
      </trkpt>
      <trkpt lat="51.223579010727" lon="4.451278151503">
        <ele>0</ele>
        <time>2020-07-18T15:43:26Z</time>
      </trkpt>
      <trkpt lat="51.224082343822" lon="4.451269769603">
        <ele>0</ele>
        <time>2020-07-18T15:43:38Z</time>
      </trkpt>
      <trkpt lat="51.224490374714" lon="4.450696615281">
        <ele>0</ele>
        <time>2020-07-18T15:43:52Z</time>
      </trkpt>
      <trkpt lat="51.224877702313" lon="4.450080880907">
        <ele>0</ele>
        <time>2020-07-18T15:44:06Z</time>
      </trkpt>
      <trkpt lat="51.225553786367" lon="4.449684668494">
        <ele>0</ele>
        <time>2020-07-18T15:44:27Z</time>
      </trkpt>
      <trkpt lat="51.225787641377" lon="4.449630018506">
        <ele>0</ele>
        <time>2020-07-18T15:44:33Z</time>
      </trkpt>
      <trkpt lat="51.225903730692" lon="4.449546870058">
        <ele>0</ele>
        <time>2020-07-18T15:44:36Z</time>
      </trkpt>
      <trkpt lat="51.226271528464" lon="4.448895764066">
        <ele>0</ele>
        <time>2020-07-18T15:44:51Z</time>
      </trkpt>
      <trkpt lat="51.22632047876" lon="4.448846729951">
        <ele>0</ele>
        <time>2020-07-18T15:44:53Z</time>
      </trkpt>
      <trkpt lat="51.226634632372" lon="4.449290300099">
        <ele>0</ele>
        <time>2020-07-18T15:45:05Z</time>
      </trkpt>
      <trkpt lat="51.227022714342" lon="4.448660316495">
        <ele>0</ele>
        <time>2020-07-18T15:45:22Z</time>
      </trkpt>
      <trkpt lat="51.227435774374" lon="4.448060172455">
        <ele>0</ele>
        <time>2020-07-18T15:45:38Z</time>
      </trkpt>
      <trkpt lat="51.227881439997" lon="4.447499339526">
        <ele>0</ele>
        <time>2020-07-18T15:45:52Z</time>
      </trkpt>
      <trkpt lat="51.228277065677" lon="4.446885784446">
        <ele>0</ele>
        <time>2020-07-18T15:46:09Z</time>
      </trkpt>
      <trkpt lat="51.228335655158" lon="4.446851334837">
        <ele>0</ele>
        <time>2020-07-18T15:46:12Z</time>
      </trkpt>
      <trkpt lat="51.228329536371" lon="4.446951582361">
        <ele>0</ele>
        <time>2020-07-18T15:46:15Z</time>
      </trkpt>
      <trkpt lat="51.228337331538" lon="4.44713942074">
        <ele>0</ele>
        <time>2020-07-18T15:46:21Z</time>
      </trkpt>
      <trkpt lat="51.228723401852" lon="4.447766303041">
        <ele>0</ele>
        <time>2020-07-18T15:46:35Z</time>
      </trkpt>
      <trkpt lat="51.229069490503" lon="4.448423611639">
        <ele>0.4</ele>
        <time>2020-07-18T15:46:54Z</time>
      </trkpt>
      <trkpt lat="51.229039148025" lon="4.448469376813">
        <ele>0.4</ele>
        <time>2020-07-18T15:46:57Z</time>
      </trkpt>
      <trkpt lat="51.22901106866" lon="4.448513633245">
        <ele>0</ele>
        <time>2020-07-18T15:46:59Z</time>
      </trkpt>
      <trkpt lat="51.228901852503" lon="4.448619580461">
        <ele>4.4</ele>
        <time>2020-07-18T15:47:27Z</time>
      </trkpt>
      <trkpt lat="51.228878886097" lon="4.448643552695">
        <ele>4</ele>
        <time>2020-07-18T15:47:29Z</time>
      </trkpt>
      <trkpt lat="51.228503041701" lon="4.449227938763">
        <ele>0</ele>
        <time>2020-07-18T15:48:03Z</time>
      </trkpt>
      <trkpt lat="51.228488289557" lon="4.4492298666">
        <ele>0</ele>
        <time>2020-07-18T15:48:09Z</time>
      </trkpt>
    </trkseg>
  </trk>
</gpx>